sensor_id;sensor_type;location;lat;lon;timestamp;P1;durP1;ratioP1;P2;durP2;ratioP2
47589;SDS011;33316;52.298;9.056;2022-08-05T00:02:04;7.10;;;2.90;;
47589;SDS011;33316;52.298;9.056;2022-08-05T00:04:29;6.10;;;3.17;;
47589;SDS011;33316;52.298;9.056;2022-08-05T00:06:55;7.47;;;3.25;;
47589;SDS011;33316;52.298;9.056;2022-08-05T00:09:20;6.32;;;3.35;;
47589;SDS011;33316;52.298;9.056;2022-08-05T00:11:46;5.38;;;3.08;;
47589;SDS011;33316;52.298;9.056;2022-08-05T00:14:13;7.53;;;3.17;;
47589;SDS011;33316;52.298;9.056;2022-08-05T00:16:38;4.10;;;2.58;;
47589;SDS011;33316;52.298;9.056;2022-08-05T00:19:04;7.43;;;4.28;;
47589;SDS011;33316;52.298;9.056;2022-08-05T00:21:29;10.75;;;5.65;;
47589;SDS011;33316;52.298;9.056;2022-08-05T00:23:55;7.18;;;3.50;;
47589;SDS011;33316;52.298;9.056;2022-08-05T00:26:20;6.25;;;3.40;;
47589;SDS011;33316;52.298;9.056;2022-08-05T00:28:46;6.05;;;2.90;;
47589;SDS011;33316;52.298;9.056;2022-08-05T00:31:12;5.15;;;3.40;;
47589;SDS011;33316;52.298;9.056;2022-08-05T00:33:37;10.40;;;4.10;;
47589;SDS011;33316;52.298;9.056;2022-08-05T00:36:03;5.97;;;3.35;;
47589;SDS011;33316;52.298;9.056;2022-08-05T00:38:29;6.43;;;3.10;;
47589;SDS011;33316;52.298;9.056;2022-08-05T00:40:55;6.00;;;3.13;;
47589;SDS011;33316;52.298;9.056;2022-08-05T00:43:23;5.97;;;3.47;;
47589;SDS011;33316;52.298;9.056;2022-08-05T00:45:49;4.88;;;3.40;;
47589;SDS011;33316;52.298;9.056;2022-08-05T00:48:19;7.63;;;4.25;;
47589;SDS011;33316;52.298;9.056;2022-08-05T00:50:47;7.10;;;3.75;;
47589;SDS011;33316;52.298;9.056;2022-08-05T00:53:15;8.55;;;4.95;;
47589;SDS011;33316;52.298;9.056;2022-08-05T00:55:42;6.13;;;3.55;;
47589;SDS011;33316;52.298;9.056;2022-08-05T00:58:07;6.22;;;3.45;;
47589;SDS011;33316;52.298;9.056;2022-08-05T01:00:33;5.07;;;3.00;;
47589;SDS011;33316;52.298;9.056;2022-08-05T01:02:59;8.52;;;4.82;;
47589;SDS011;33316;52.298;9.056;2022-08-05T01:05:25;7.20;;;4.18;;
47589;SDS011;33316;52.298;9.056;2022-08-05T01:07:51;8.00;;;4.50;;
47589;SDS011;33316;52.298;9.056;2022-08-05T01:10:21;5.38;;;3.70;;
47589;SDS011;33316;52.298;9.056;2022-08-05T01:12:52;5.70;;;4.00;;
47589;SDS011;33316;52.298;9.056;2022-08-05T01:15:24;6.75;;;3.75;;
47589;SDS011;33316;52.298;9.056;2022-08-05T01:17:54;8.07;;;3.83;;
47589;SDS011;33316;52.298;9.056;2022-08-05T01:20:29;7.00;;;3.67;;
47589;SDS011;33316;52.298;9.056;2022-08-05T01:25:52;7.25;;;3.80;;
47589;SDS011;33316;52.298;9.056;2022-08-05T01:31:08;8.88;;;4.60;;
47589;SDS011;33316;52.298;9.056;2022-08-05T01:33:58;10.60;;;6.30;;
47589;SDS011;33316;52.298;9.056;2022-08-05T01:36:33;15.10;;;8.20;;
47589;SDS011;33316;52.298;9.056;2022-08-05T01:39:01;11.13;;;6.75;;
47589;SDS011;33316;52.298;9.056;2022-08-05T01:41:28;10.02;;;6.40;;
47589;SDS011;33316;52.298;9.056;2022-08-05T01:43:57;11.30;;;6.43;;
47589;SDS011;33316;52.298;9.056;2022-08-05T01:46:25;8.45;;;5.63;;
47589;SDS011;33316;52.298;9.056;2022-08-05T01:48:52;12.23;;;6.45;;
47589;SDS011;33316;52.298;9.056;2022-08-05T01:51:19;9.82;;;5.68;;
47589;SDS011;33316;52.298;9.056;2022-08-05T01:53:48;8.35;;;5.45;;
47589;SDS011;33316;52.298;9.056;2022-08-05T01:56:15;9.90;;;4.95;;
47589;SDS011;33316;52.298;9.056;2022-08-05T01:58:42;6.38;;;4.50;;
47589;SDS011;33316;52.298;9.056;2022-08-05T02:01:09;8.82;;;4.63;;
47589;SDS011;33316;52.298;9.056;2022-08-05T02:03:39;7.63;;;4.90;;
47589;SDS011;33316;52.298;9.056;2022-08-05T02:06:08;10.15;;;6.78;;
47589;SDS011;33316;52.298;9.056;2022-08-05T02:08:35;13.27;;;6.82;;
47589;SDS011;33316;52.298;9.056;2022-08-05T02:11:04;10.73;;;6.03;;
47589;SDS011;33316;52.298;9.056;2022-08-05T02:16:38;8.00;;;4.60;;
47589;SDS011;33316;52.298;9.056;2022-08-05T02:19:09;7.05;;;4.38;;
47589;SDS011;33316;52.298;9.056;2022-08-05T02:21:43;8.27;;;4.75;;
47589;SDS011;33316;52.298;9.056;2022-08-05T02:24:17;6.18;;;4.20;;
47589;SDS011;33316;52.298;9.056;2022-08-05T02:26:53;6.55;;;4.20;;
47589;SDS011;33316;52.298;9.056;2022-08-05T02:29:23;6.25;;;4.32;;
47589;SDS011;33316;52.298;9.056;2022-08-05T02:31:52;6.57;;;4.10;;
47589;SDS011;33316;52.298;9.056;2022-08-05T02:34:21;8.35;;;4.20;;
47589;SDS011;33316;52.298;9.056;2022-08-05T02:36:49;6.35;;;3.97;;
47589;SDS011;33316;52.298;9.056;2022-08-05T02:39:18;7.43;;;4.40;;
47589;SDS011;33316;52.298;9.056;2022-08-05T02:41:46;9.18;;;4.57;;
47589;SDS011;33316;52.298;9.056;2022-08-05T02:44:13;6.63;;;3.92;;
47589;SDS011;33316;52.298;9.056;2022-08-05T02:46:40;6.35;;;3.92;;
47589;SDS011;33316;52.298;9.056;2022-08-05T02:49:08;6.18;;;3.97;;
47589;SDS011;33316;52.298;9.056;2022-08-05T02:51:36;6.20;;;4.05;;
47589;SDS011;33316;52.298;9.056;2022-08-05T02:54:03;7.22;;;4.10;;
47589;SDS011;33316;52.298;9.056;2022-08-05T02:56:30;6.57;;;4.30;;
47589;SDS011;33316;52.298;9.056;2022-08-05T02:58:58;8.65;;;4.90;;
47589;SDS011;33316;52.298;9.056;2022-08-05T03:01:25;7.97;;;4.47;;
47589;SDS011;33316;52.298;9.056;2022-08-05T03:03:57;6.85;;;4.45;;
47589;SDS011;33316;52.298;9.056;2022-08-05T03:06:25;8.80;;;4.13;;
47589;SDS011;33316;52.298;9.056;2022-08-05T03:08:52;8.07;;;4.82;;
47589;SDS011;33316;52.298;9.056;2022-08-05T03:11:22;9.32;;;4.85;;
47589;SDS011;33316;52.298;9.056;2022-08-05T03:13:49;7.50;;;4.63;;
47589;SDS011;33316;52.298;9.056;2022-08-05T03:16:16;7.28;;;4.93;;
47589;SDS011;33316;52.298;9.056;2022-08-05T03:18:42;7.88;;;4.75;;
47589;SDS011;33316;52.298;9.056;2022-08-05T03:21:08;5.90;;;4.28;;
47589;SDS011;33316;52.298;9.056;2022-08-05T03:23:35;7.05;;;4.32;;
47589;SDS011;33316;52.298;9.056;2022-08-05T03:26:02;6.72;;;4.47;;
47589;SDS011;33316;52.298;9.056;2022-08-05T03:28:28;6.75;;;4.10;;
47589;SDS011;33316;52.298;9.056;2022-08-05T03:30:55;8.05;;;4.15;;
47589;SDS011;33316;52.298;9.056;2022-08-05T03:33:23;7.72;;;4.45;;
47589;SDS011;33316;52.298;9.056;2022-08-05T03:35:50;6.90;;;4.40;;
47589;SDS011;33316;52.298;9.056;2022-08-05T03:38:16;7.30;;;4.40;;
47589;SDS011;33316;52.298;9.056;2022-08-05T03:40:45;7.68;;;4.53;;
47589;SDS011;33316;52.298;9.056;2022-08-05T03:43:10;6.50;;;3.90;;
47589;SDS011;33316;52.298;9.056;2022-08-05T03:45:36;6.97;;;4.40;;
47589;SDS011;33316;52.298;9.056;2022-08-05T03:48:02;7.72;;;4.38;;
47589;SDS011;33316;52.298;9.056;2022-08-05T03:53:33;7.63;;;4.75;;
47589;SDS011;33316;52.298;9.056;2022-08-05T03:56:04;6.65;;;4.22;;
47589;SDS011;33316;52.298;9.056;2022-08-05T03:58:35;7.53;;;4.35;;
47589;SDS011;33316;52.298;9.056;2022-08-05T04:01:03;6.88;;;4.32;;
47589;SDS011;33316;52.298;9.056;2022-08-05T04:03:31;8.20;;;4.45;;
47589;SDS011;33316;52.298;9.056;2022-08-05T04:06:01;7.35;;;4.13;;
47589;SDS011;33316;52.298;9.056;2022-08-05T04:08:28;7.70;;;4.88;;
47589;SDS011;33316;52.298;9.056;2022-08-05T04:10:54;7.07;;;4.80;;
47589;SDS011;33316;52.298;9.056;2022-08-05T04:13:21;8.05;;;5.00;;
47589;SDS011;33316;52.298;9.056;2022-08-05T04:15:48;6.25;;;4.47;;
47589;SDS011;33316;52.298;9.056;2022-08-05T04:18:14;7.90;;;4.35;;
47589;SDS011;33316;52.298;9.056;2022-08-05T04:20:40;11.25;;;5.25;;
47589;SDS011;33316;52.298;9.056;2022-08-05T04:23:06;9.43;;;4.90;;
47589;SDS011;33316;52.298;9.056;2022-08-05T04:25:34;7.00;;;4.05;;
47589;SDS011;33316;52.298;9.056;2022-08-05T04:27:59;6.53;;;4.40;;
47589;SDS011;33316;52.298;9.056;2022-08-05T04:30:25;7.15;;;4.03;;
47589;SDS011;33316;52.298;9.056;2022-08-05T04:32:50;6.13;;;4.10;;
47589;SDS011;33316;52.298;9.056;2022-08-05T04:35:16;6.40;;;4.13;;
47589;SDS011;33316;52.298;9.056;2022-08-05T04:37:42;9.23;;;5.22;;
47589;SDS011;33316;52.298;9.056;2022-08-05T04:40:07;6.63;;;4.32;;
47589;SDS011;33316;52.298;9.056;2022-08-05T04:42:34;8.82;;;4.55;;
47589;SDS011;33316;52.298;9.056;2022-08-05T04:44:59;7.10;;;4.15;;
47589;SDS011;33316;52.298;9.056;2022-08-05T04:47:25;7.43;;;3.58;;
47589;SDS011;33316;52.298;9.056;2022-08-05T04:49:50;5.63;;;3.70;;
47589;SDS011;33316;52.298;9.056;2022-08-05T04:52:16;6.75;;;3.58;;
47589;SDS011;33316;52.298;9.056;2022-08-05T04:54:41;5.32;;;3.15;;
47589;SDS011;33316;52.298;9.056;2022-08-05T04:57:07;6.85;;;3.13;;
47589;SDS011;33316;52.298;9.056;2022-08-05T04:59:33;5.13;;;3.10;;
47589;SDS011;33316;52.298;9.056;2022-08-05T05:01:58;7.55;;;3.55;;
47589;SDS011;33316;52.298;9.056;2022-08-05T05:04:24;6.78;;;2.90;;
47589;SDS011;33316;52.298;9.056;2022-08-05T05:06:49;7.63;;;3.22;;
47589;SDS011;33316;52.298;9.056;2022-08-05T05:09:15;5.57;;;3.42;;
47589;SDS011;33316;52.298;9.056;2022-08-05T05:11:40;4.32;;;2.85;;
47589;SDS011;33316;52.298;9.056;2022-08-05T05:14:06;5.97;;;2.97;;
47589;SDS011;33316;52.298;9.056;2022-08-05T05:16:31;4.85;;;2.67;;
47589;SDS011;33316;52.298;9.056;2022-08-05T05:18:57;4.78;;;2.60;;
47589;SDS011;33316;52.298;9.056;2022-08-05T05:21:22;5.65;;;2.85;;
47589;SDS011;33316;52.298;9.056;2022-08-05T05:23:48;5.18;;;2.65;;
47589;SDS011;33316;52.298;9.056;2022-08-05T05:26:13;4.47;;;2.47;;
47589;SDS011;33316;52.298;9.056;2022-08-05T05:28:39;4.03;;;2.17;;
47589;SDS011;33316;52.298;9.056;2022-08-05T05:31:05;4.80;;;2.15;;
47589;SDS011;33316;52.298;9.056;2022-08-05T05:33:30;5.90;;;2.33;;
47589;SDS011;33316;52.298;9.056;2022-08-05T05:35:56;3.67;;;2.60;;
47589;SDS011;33316;52.298;9.056;2022-08-05T05:38:21;4.82;;;2.60;;
47589;SDS011;33316;52.298;9.056;2022-08-05T05:40:47;5.38;;;3.03;;
47589;SDS011;33316;52.298;9.056;2022-08-05T05:43:12;6.07;;;2.75;;
47589;SDS011;33316;52.298;9.056;2022-08-05T05:45:38;4.68;;;2.30;;
47589;SDS011;33316;52.298;9.056;2022-08-05T05:48:03;2.78;;;1.70;;
47589;SDS011;33316;52.298;9.056;2022-08-05T05:50:32;3.10;;;1.60;;
47589;SDS011;33316;52.298;9.056;2022-08-05T05:52:59;4.35;;;1.85;;
47589;SDS011;33316;52.298;9.056;2022-08-05T05:55:25;3.83;;;2.35;;
47589;SDS011;33316;52.298;9.056;2022-08-05T05:57:50;4.07;;;2.45;;
47589;SDS011;33316;52.298;9.056;2022-08-05T06:00:16;4.25;;;2.40;;
47589;SDS011;33316;52.298;9.056;2022-08-05T06:02:43;3.70;;;2.00;;
47589;SDS011;33316;52.298;9.056;2022-08-05T06:05:10;3.90;;;2.20;;
47589;SDS011;33316;52.298;9.056;2022-08-05T06:07:37;3.80;;;1.88;;
47589;SDS011;33316;52.298;9.056;2022-08-05T06:10:04;3.50;;;1.92;;
47589;SDS011;33316;52.298;9.056;2022-08-05T06:12:30;3.97;;;1.73;;
47589;SDS011;33316;52.298;9.056;2022-08-05T06:14:56;2.97;;;1.92;;
47589;SDS011;33316;52.298;9.056;2022-08-05T06:17:22;5.38;;;2.13;;
47589;SDS011;33316;52.298;9.056;2022-08-05T06:19:47;4.35;;;2.45;;
47589;SDS011;33316;52.298;9.056;2022-08-05T06:22:15;3.05;;;2.05;;
47589;SDS011;33316;52.298;9.056;2022-08-05T06:24:48;4.25;;;1.92;;
47589;SDS011;33316;52.298;9.056;2022-08-05T06:27:13;5.03;;;2.17;;
47589;SDS011;33316;52.298;9.056;2022-08-05T06:29:39;2.95;;;1.60;;
47589;SDS011;33316;52.298;9.056;2022-08-05T06:32:04;4.43;;;1.98;;
47589;SDS011;33316;52.298;9.056;2022-08-05T06:34:30;4.35;;;1.90;;
47589;SDS011;33316;52.298;9.056;2022-08-05T06:36:55;2.92;;;1.58;;
47589;SDS011;33316;52.298;9.056;2022-08-05T06:39:21;1.90;;;1.40;;
47589;SDS011;33316;52.298;9.056;2022-08-05T06:41:46;4.13;;;2.17;;
47589;SDS011;33316;52.298;9.056;2022-08-05T06:44:13;2.53;;;1.67;;
47589;SDS011;33316;52.298;9.056;2022-08-05T06:46:39;4.47;;;1.75;;
47589;SDS011;33316;52.298;9.056;2022-08-05T06:49:04;2.30;;;1.40;;
47589;SDS011;33316;52.298;9.056;2022-08-05T06:51:30;3.47;;;1.77;;
47589;SDS011;33316;52.298;9.056;2022-08-05T06:53:56;3.35;;;1.48;;
47589;SDS011;33316;52.298;9.056;2022-08-05T06:56:26;3.53;;;1.63;;
47589;SDS011;33316;52.298;9.056;2022-08-05T06:58:52;2.92;;;1.48;;
47589;SDS011;33316;52.298;9.056;2022-08-05T07:01:19;2.72;;;1.65;;
47589;SDS011;33316;52.298;9.056;2022-08-05T07:03:44;4.93;;;1.60;;
47589;SDS011;33316;52.298;9.056;2022-08-05T07:06:10;4.55;;;1.92;;
47589;SDS011;33316;52.298;9.056;2022-08-05T07:08:35;5.97;;;1.63;;
47589;SDS011;33316;52.298;9.056;2022-08-05T07:11:01;2.88;;;1.50;;
47589;SDS011;33316;52.298;9.056;2022-08-05T07:13:28;3.95;;;1.80;;
47589;SDS011;33316;52.298;9.056;2022-08-05T07:16:12;3.90;;;1.38;;
47589;SDS011;33316;52.298;9.056;2022-08-05T07:18:57;3.28;;;1.50;;
47589;SDS011;33316;52.298;9.056;2022-08-05T07:21:22;5.65;;;1.95;;
47589;SDS011;33316;52.298;9.056;2022-08-05T07:23:48;3.67;;;1.70;;
47589;SDS011;33316;52.298;9.056;2022-08-05T07:26:13;4.57;;;1.75;;
47589;SDS011;33316;52.298;9.056;2022-08-05T07:28:39;3.65;;;1.80;;
47589;SDS011;33316;52.298;9.056;2022-08-05T07:31:05;3.30;;;1.98;;
47589;SDS011;33316;52.298;9.056;2022-08-05T07:33:31;3.25;;;1.52;;
47589;SDS011;33316;52.298;9.056;2022-08-05T07:35:57;3.67;;;1.65;;
47589;SDS011;33316;52.298;9.056;2022-08-05T07:38:23;5.10;;;2.47;;
47589;SDS011;33316;52.298;9.056;2022-08-05T07:40:49;3.10;;;2.00;;
47589;SDS011;33316;52.298;9.056;2022-08-05T07:43:15;2.53;;;1.40;;
47589;SDS011;33316;52.298;9.056;2022-08-05T07:45:43;3.65;;;1.67;;
47589;SDS011;33316;52.298;9.056;2022-08-05T07:48:09;3.88;;;2.10;;
47589;SDS011;33316;52.298;9.056;2022-08-05T07:50:35;3.75;;;1.63;;
47589;SDS011;33316;52.298;9.056;2022-08-05T07:53:02;4.05;;;1.92;;
47589;SDS011;33316;52.298;9.056;2022-08-05T07:55:27;1.98;;;1.52;;
47589;SDS011;33316;52.298;9.056;2022-08-05T07:57:54;5.70;;;2.20;;
47589;SDS011;33316;52.298;9.056;2022-08-05T08:00:20;2.70;;;1.80;;
47589;SDS011;33316;52.298;9.056;2022-08-05T08:02:46;3.58;;;1.70;;
47589;SDS011;33316;52.298;9.056;2022-08-05T08:05:11;2.97;;;1.70;;
47589;SDS011;33316;52.298;9.056;2022-08-05T08:07:37;5.32;;;2.00;;
47589;SDS011;33316;52.298;9.056;2022-08-05T08:10:03;3.20;;;1.27;;
47589;SDS011;33316;52.298;9.056;2022-08-05T08:12:29;3.22;;;1.80;;
47589;SDS011;33316;52.298;9.056;2022-08-05T08:14:54;2.28;;;1.63;;
47589;SDS011;33316;52.298;9.056;2022-08-05T08:17:20;2.70;;;1.42;;
47589;SDS011;33316;52.298;9.056;2022-08-05T08:19:46;4.70;;;1.67;;
47589;SDS011;33316;52.298;9.056;2022-08-05T08:22:12;4.25;;;2.13;;
47589;SDS011;33316;52.298;9.056;2022-08-05T08:24:37;2.58;;;1.33;;
47589;SDS011;33316;52.298;9.056;2022-08-05T08:27:03;5.38;;;1.50;;
47589;SDS011;33316;52.298;9.056;2022-08-05T08:29:29;2.80;;;1.17;;
47589;SDS011;33316;52.298;9.056;2022-08-05T08:31:55;1.33;;;0.80;;
47589;SDS011;33316;52.298;9.056;2022-08-05T08:34:22;2.53;;;1.27;;
47589;SDS011;33316;52.298;9.056;2022-08-05T08:36:49;2.33;;;1.05;;
47589;SDS011;33316;52.298;9.056;2022-08-05T08:39:14;1.52;;;0.98;;
47589;SDS011;33316;52.298;9.056;2022-08-05T08:41:45;2.13;;;1.05;;
47589;SDS011;33316;52.298;9.056;2022-08-05T08:44:12;2.05;;;0.90;;
47589;SDS011;33316;52.298;9.056;2022-08-05T08:46:39;2.80;;;0.73;;
47589;SDS011;33316;52.298;9.056;2022-08-05T08:49:06;2.35;;;0.82;;
47589;SDS011;33316;52.298;9.056;2022-08-05T08:51:33;4.30;;;1.60;;
47589;SDS011;33316;52.298;9.056;2022-08-05T08:54:00;4.57;;;2.33;;
47589;SDS011;33316;52.298;9.056;2022-08-05T08:56:26;3.65;;;1.40;;
47589;SDS011;33316;52.298;9.056;2022-08-05T08:58:52;4.78;;;1.38;;
47589;SDS011;33316;52.298;9.056;2022-08-05T09:01:17;5.22;;;1.65;;
47589;SDS011;33316;52.298;9.056;2022-08-05T09:03:44;3.05;;;1.67;;
47589;SDS011;33316;52.298;9.056;2022-08-05T09:06:11;2.13;;;1.15;;
47589;SDS011;33316;52.298;9.056;2022-08-05T09:08:37;3.05;;;1.55;;
47589;SDS011;33316;52.298;9.056;2022-08-05T09:11:03;3.67;;;1.80;;
47589;SDS011;33316;52.298;9.056;2022-08-05T09:13:28;2.88;;;1.65;;
47589;SDS011;33316;52.298;9.056;2022-08-05T09:15:54;2.92;;;1.40;;
47589;SDS011;33316;52.298;9.056;2022-08-05T09:18:20;3.63;;;1.55;;
47589;SDS011;33316;52.298;9.056;2022-08-05T09:20:45;2.80;;;1.80;;
47589;SDS011;33316;52.298;9.056;2022-08-05T09:25:42;3.25;;;1.38;;
47589;SDS011;33316;52.298;9.056;2022-08-05T09:28:10;1.75;;;1.10;;
47589;SDS011;33316;52.298;9.056;2022-08-05T09:30:53;3.88;;;1.30;;
47589;SDS011;33316;52.298;9.056;2022-08-05T09:33:20;4.18;;;1.55;;
47589;SDS011;33316;52.298;9.056;2022-08-05T09:35:59;2.28;;;1.27;;
47589;SDS011;33316;52.298;9.056;2022-08-05T09:38:26;4.10;;;1.92;;
47589;SDS011;33316;52.298;9.056;2022-08-05T09:40:53;3.72;;;1.67;;
47589;SDS011;33316;52.298;9.056;2022-08-05T09:43:26;2.88;;;1.30;;
47589;SDS011;33316;52.298;9.056;2022-08-05T09:46:02;3.03;;;1.17;;
47589;SDS011;33316;52.298;9.056;2022-08-05T09:48:31;2.33;;;1.10;;
47589;SDS011;33316;52.298;9.056;2022-08-05T09:50:59;3.10;;;1.00;;
47589;SDS011;33316;52.298;9.056;2022-08-05T09:53:27;2.17;;;1.00;;
47589;SDS011;33316;52.298;9.056;2022-08-05T09:55:57;2.20;;;0.93;;
47589;SDS011;33316;52.298;9.056;2022-08-05T09:58:24;2.88;;;0.93;;
47589;SDS011;33316;52.298;9.056;2022-08-05T10:00:51;2.33;;;1.10;;
47589;SDS011;33316;52.298;9.056;2022-08-05T10:03:19;2.67;;;1.80;;
47589;SDS011;33316;52.298;9.056;2022-08-05T10:05:45;4.05;;;2.15;;
47589;SDS011;33316;52.298;9.056;2022-08-05T10:08:10;4.15;;;1.92;;
47589;SDS011;33316;52.298;9.056;2022-08-05T10:10:37;3.45;;;1.67;;
47589;SDS011;33316;52.298;9.056;2022-08-05T10:13:10;3.05;;;1.88;;
47589;SDS011;33316;52.298;9.056;2022-08-05T10:15:39;2.25;;;1.67;;
47589;SDS011;33316;52.298;9.056;2022-08-05T10:18:06;8.43;;;4.40;;
47589;SDS011;33316;52.298;9.056;2022-08-05T10:20:47;4.72;;;3.22;;
47589;SDS011;33316;52.298;9.056;2022-08-05T10:23:37;4.32;;;2.97;;
47589;SDS011;33316;52.298;9.056;2022-08-05T10:26:03;3.05;;;2.28;;
47589;SDS011;33316;52.298;9.056;2022-08-05T10:28:30;3.33;;;2.08;;
47589;SDS011;33316;52.298;9.056;2022-08-05T10:30:57;4.97;;;2.25;;
47589;SDS011;33316;52.298;9.056;2022-08-05T10:33:24;3.17;;;1.88;;
47589;SDS011;33316;52.298;9.056;2022-08-05T10:35:52;3.22;;;2.15;;
47589;SDS011;33316;52.298;9.056;2022-08-05T10:38:19;2.45;;;2.00;;
47589;SDS011;33316;52.298;9.056;2022-08-05T10:43:32;3.88;;;2.75;;
47589;SDS011;33316;52.298;9.056;2022-08-05T10:46:12;4.10;;;3.15;;
47589;SDS011;33316;52.298;9.056;2022-08-05T10:48:47;4.07;;;2.60;;
47589;SDS011;33316;52.298;9.056;2022-08-05T10:51:14;4.63;;;2.45;;
47589;SDS011;33316;52.298;9.056;2022-08-05T11:01:29;3.17;;;1.30;;
47589;SDS011;33316;52.298;9.056;2022-08-05T11:04:12;1.95;;;1.30;;
47589;SDS011;33316;52.298;9.056;2022-08-05T11:09:22;3.67;;;1.27;;
47589;SDS011;33316;52.298;9.056;2022-08-05T11:11:49;1.48;;;1.00;;
47589;SDS011;33316;52.298;9.056;2022-08-05T11:14:37;1.40;;;0.93;;
47589;SDS011;33316;52.298;9.056;2022-08-05T11:19:57;2.72;;;1.00;;
47589;SDS011;33316;52.298;9.056;2022-08-05T11:28:41;1.42;;;0.88;;
47589;SDS011;33316;52.298;9.056;2022-08-05T11:33:32;1.27;;;0.80;;
47589;SDS011;33316;52.298;9.056;2022-08-05T11:36:03;2.25;;;0.90;;
47589;SDS011;33316;52.298;9.056;2022-08-05T11:41:24;2.42;;;0.90;;
47589;SDS011;33316;52.298;9.056;2022-08-05T11:43:58;0.70;;;0.47;;
47589;SDS011;33316;52.298;9.056;2022-08-05T11:46:42;1.65;;;0.77;;
47589;SDS011;33316;52.298;9.056;2022-08-05T11:49:10;1.10;;;0.60;;
47589;SDS011;33316;52.298;9.056;2022-08-05T11:51:40;1.20;;;0.95;;
47589;SDS011;33316;52.298;9.056;2022-08-05T11:54:11;1.58;;;0.73;;
47589;SDS011;33316;52.298;9.056;2022-08-05T11:56:45;1.10;;;0.50;;
47589;SDS011;33316;52.298;9.056;2022-08-05T11:59:19;1.25;;;0.80;;
47589;SDS011;33316;52.298;9.056;2022-08-05T12:01:57;1.45;;;0.70;;
47589;SDS011;33316;52.298;9.056;2022-08-05T12:04:37;1.02;;;0.63;;
47589;SDS011;33316;52.298;9.056;2022-08-05T12:07:08;1.83;;;0.80;;
47589;SDS011;33316;52.298;9.056;2022-08-05T12:09:36;2.20;;;0.70;;
47589;SDS011;33316;52.298;9.056;2022-08-05T12:12:06;1.33;;;0.63;;
47589;SDS011;33316;52.298;9.056;2022-08-05T12:14:40;1.25;;;0.80;;
47589;SDS011;33316;52.298;9.056;2022-08-05T12:17:10;1.50;;;0.70;;
47589;SDS011;33316;52.298;9.056;2022-08-05T12:19:47;1.25;;;0.70;;
47589;SDS011;33316;52.298;9.056;2022-08-05T12:22:20;2.38;;;0.68;;
47589;SDS011;33316;52.298;9.056;2022-08-05T12:24:50;1.33;;;0.60;;
47589;SDS011;33316;52.298;9.056;2022-08-05T12:27:20;1.35;;;0.70;;
47589;SDS011;33316;52.298;9.056;2022-08-05T12:30:08;1.10;;;0.70;;
47589;SDS011;33316;52.298;9.056;2022-08-05T12:32:34;2.13;;;0.90;;
47589;SDS011;33316;52.298;9.056;2022-08-05T12:35:07;2.35;;;1.20;;
47589;SDS011;33316;52.298;9.056;2022-08-05T12:37:33;3.08;;;1.23;;
47589;SDS011;33316;52.298;9.056;2022-08-05T12:39:59;1.85;;;1.10;;
47589;SDS011;33316;52.298;9.056;2022-08-05T12:42:27;1.33;;;0.82;;
47589;SDS011;33316;52.298;9.056;2022-08-05T12:44:59;1.50;;;1.10;;
47589;SDS011;33316;52.298;9.056;2022-08-05T12:47:35;2.88;;;0.80;;
47589;SDS011;33316;52.298;9.056;2022-08-05T12:50:11;1.20;;;0.77;;
47589;SDS011;33316;52.298;9.056;2022-08-05T12:52:38;2.25;;;1.10;;
47589;SDS011;33316;52.298;9.056;2022-08-05T12:55:17;1.20;;;0.70;;
47589;SDS011;33316;52.298;9.056;2022-08-05T12:57:47;2.75;;;0.80;;
47589;SDS011;33316;52.298;9.056;2022-08-05T13:00:19;1.73;;;0.77;;
47589;SDS011;33316;52.298;9.056;2022-08-05T13:02:48;0.82;;;0.70;;
47589;SDS011;33316;52.298;9.056;2022-08-05T13:05:14;1.73;;;0.90;;
47589;SDS011;33316;52.298;9.056;2022-08-05T13:07:41;1.80;;;0.90;;
47589;SDS011;33316;52.298;9.056;2022-08-05T13:10:09;2.22;;;0.73;;
47589;SDS011;33316;52.298;9.056;2022-08-05T13:12:40;1.67;;;0.80;;
47589;SDS011;33316;52.298;9.056;2022-08-05T13:15:10;1.25;;;0.52;;
47589;SDS011;33316;52.298;9.056;2022-08-05T13:17:37;0.60;;;0.52;;
47589;SDS011;33316;52.298;9.056;2022-08-05T13:20:10;1.58;;;0.60;;
47589;SDS011;33316;52.298;9.056;2022-08-05T13:22:42;0.73;;;0.60;;
47589;SDS011;33316;52.298;9.056;2022-08-05T13:25:12;1.13;;;0.60;;
47589;SDS011;33316;52.298;9.056;2022-08-05T13:27:40;1.17;;;0.43;;
47589;SDS011;33316;52.298;9.056;2022-08-05T13:30:29;1.00;;;0.63;;
47589;SDS011;33316;52.298;9.056;2022-08-05T13:32:54;0.73;;;0.47;;
47589;SDS011;33316;52.298;9.056;2022-08-05T13:35:20;1.35;;;0.65;;
47589;SDS011;33316;52.298;9.056;2022-08-05T13:37:46;0.90;;;0.50;;
47589;SDS011;33316;52.298;9.056;2022-08-05T13:40:13;2.15;;;0.73;;
47589;SDS011;33316;52.298;9.056;2022-08-05T13:42:38;2.38;;;0.70;;
47589;SDS011;33316;52.298;9.056;2022-08-05T13:45:04;1.42;;;0.70;;
47589;SDS011;33316;52.298;9.056;2022-08-05T13:47:31;2.03;;;0.75;;
47589;SDS011;33316;52.298;9.056;2022-08-05T13:49:58;2.28;;;1.05;;
47589;SDS011;33316;52.298;9.056;2022-08-05T13:52:24;1.75;;;0.88;;
47589;SDS011;33316;52.298;9.056;2022-08-05T13:54:51;2.22;;;1.00;;
47589;SDS011;33316;52.298;9.056;2022-08-05T13:57:20;2.78;;;1.10;;
47589;SDS011;33316;52.298;9.056;2022-08-05T13:59:46;1.55;;;0.95;;
47589;SDS011;33316;52.298;9.056;2022-08-05T14:02:12;2.15;;;0.88;;
47589;SDS011;33316;52.298;9.056;2022-08-05T14:04:39;1.33;;;0.60;;
47589;SDS011;33316;52.298;9.056;2022-08-05T14:09:55;2.17;;;0.80;;
47589;SDS011;33316;52.298;9.056;2022-08-05T14:12:21;1.85;;;0.93;;
47589;SDS011;33316;52.298;9.056;2022-08-05T14:14:46;2.17;;;0.75;;
47589;SDS011;33316;52.298;9.056;2022-08-05T14:17:12;0.80;;;0.77;;
47589;SDS011;33316;52.298;9.056;2022-08-05T14:19:39;1.55;;;0.90;;
47589;SDS011;33316;52.298;9.056;2022-08-05T14:22:08;1.73;;;0.85;;
47589;SDS011;33316;52.298;9.056;2022-08-05T14:24:34;1.10;;;0.75;;
47589;SDS011;33316;52.298;9.056;2022-08-05T14:27:00;1.73;;;0.80;;
47589;SDS011;33316;52.298;9.056;2022-08-05T14:29:26;1.58;;;0.60;;
47589;SDS011;33316;52.298;9.056;2022-08-05T14:31:52;2.10;;;1.30;;
47589;SDS011;33316;52.298;9.056;2022-08-05T14:34:17;1.20;;;1.00;;
47589;SDS011;33316;52.298;9.056;2022-08-05T14:36:43;2.63;;;1.20;;
47589;SDS011;33316;52.298;9.056;2022-08-05T14:39:09;1.75;;;1.20;;
47589;SDS011;33316;52.298;9.056;2022-08-05T14:41:34;1.60;;;0.90;;
47589;SDS011;33316;52.298;9.056;2022-08-05T14:44:00;1.40;;;0.80;;
47589;SDS011;33316;52.298;9.056;2022-08-05T14:46:26;2.00;;;1.08;;
47589;SDS011;33316;52.298;9.056;2022-08-05T14:48:52;2.00;;;0.70;;
47589;SDS011;33316;52.298;9.056;2022-08-05T14:51:18;0.90;;;0.65;;
47589;SDS011;33316;52.298;9.056;2022-08-05T14:53:44;3.15;;;0.70;;
47589;SDS011;33316;52.298;9.056;2022-08-05T14:56:10;0.85;;;0.55;;
47589;SDS011;33316;52.298;9.056;2022-08-05T14:58:36;1.15;;;0.70;;
47589;SDS011;33316;52.298;9.056;2022-08-05T15:01:02;1.40;;;0.65;;
47589;SDS011;33316;52.298;9.056;2022-08-05T15:03:28;2.28;;;0.80;;
47589;SDS011;33316;52.298;9.056;2022-08-05T15:05:54;1.98;;;0.70;;
47589;SDS011;33316;52.298;9.056;2022-08-05T15:08:19;1.23;;;0.70;;
47589;SDS011;33316;52.298;9.056;2022-08-05T15:10:45;1.20;;;0.60;;
47589;SDS011;33316;52.298;9.056;2022-08-05T15:13:11;0.98;;;0.50;;
47589;SDS011;33316;52.298;9.056;2022-08-05T15:15:36;1.77;;;0.85;;
47589;SDS011;33316;52.298;9.056;2022-08-05T15:18:02;2.20;;;0.65;;
47589;SDS011;33316;52.298;9.056;2022-08-05T15:20:28;1.65;;;0.70;;
47589;SDS011;33316;52.298;9.056;2022-08-05T15:22:53;1.05;;;0.73;;
47589;SDS011;33316;52.298;9.056;2022-08-05T15:25:19;1.25;;;0.70;;
47589;SDS011;33316;52.298;9.056;2022-08-05T15:27:44;0.63;;;0.50;;
47589;SDS011;33316;52.298;9.056;2022-08-05T15:30:10;1.15;;;0.55;;
47589;SDS011;33316;52.298;9.056;2022-08-05T15:32:36;1.10;;;0.40;;
47589;SDS011;33316;52.298;9.056;2022-08-05T15:35:02;1.33;;;0.52;;
47589;SDS011;33316;52.298;9.056;2022-08-05T15:37:28;0.93;;;0.40;;